Aviation Digital Data Service (ADDS)

Output produced by METARs form (1105 UTC 17 June 2019)
found at http://www.aviationweather.gov/metar/data/
 
METAR text: VOCI 171030Z 28010KT 6000 SCT015 32/25 Q1008 NOSIG
Conditions at: VOCI (COCHIN INTL , IN) observed 1030 UTC 17 June 2019
Temperature: 32.0°C (90°F)
Dewpoint: 25.0°C (77°F) [RH = 67%]
Pressure (altimeter): 29.76 inches Hg (1008.0 mb)
Winds: from the W (280 degrees) at 12 MPH (10 knots; 5.1 m/s)
Visibility: 4 miles ( 6 km)
Ceiling: at least 12,000 feet AGL
Clouds: scattered clouds at 1500 feet AGL
Weather: no significant weather observed at this time

METAR text: VOCI 171000Z 25009KT 6000 SCT015 SCT020 32/26 Q1008 NOSIG
Conditions at: VOCI (COCHIN INTL , IN) observed 1000 UTC 17 June 2019
Temperature: 32.0°C (90°F)
Dewpoint: 26.0°C (79°F) [RH = 71%]
Pressure (altimeter): 29.76 inches Hg (1008.0 mb)
Winds: from the WSW (250 degrees) at 10 MPH (9 knots; 4.6 m/s)
Visibility: 4 miles ( 6 km)
Ceiling: at least 12,000 feet AGL
Clouds: scattered clouds at 1500 feet AGL
scattered clouds at 2000 feet AGL
Weather: no significant weather observed at this time

METAR text: VOCI 170930Z 25010KT 6000 FEW015 SCT020 31/26 Q1008 NOSIG
Conditions at: VOCI (COCHIN INTL , IN) observed 0930 UTC 17 June 2019
Temperature: 31.0°C (88°F)
Dewpoint: 26.0°C (79°F) [RH = 75%]
Pressure (altimeter): 29.76 inches Hg (1008.0 mb)
Winds: from the WSW (250 degrees) at 12 MPH (10 knots; 5.1 m/s)
Visibility: 4 miles ( 6 km)
Ceiling: at least 12,000 feet AGL
Clouds: few clouds at 1500 feet AGL
scattered clouds at 2000 feet AGL
Weather: no significant weather observed at this time

METAR text: VOCI 170900Z 25010KT 6000 FEW015 SCT020 31/25 Q1009 NOSIG
Conditions at: VOCI (COCHIN INTL , IN) observed 0900 UTC 17 June 2019
Temperature: 31.0°C (88°F)
Dewpoint: 25.0°C (77°F) [RH = 71%]
Pressure (altimeter): 29.79 inches Hg (1009.0 mb)
Winds: from the WSW (250 degrees) at 12 MPH (10 knots; 5.1 m/s)
Visibility: 4 miles ( 6 km)
Ceiling: at least 12,000 feet AGL
Clouds: few clouds at 1500 feet AGL
scattered clouds at 2000 feet AGL
Weather: no significant weather observed at this time

METAR text: VOCI 170830Z 25012KT 6000 SCT015 SCT020 31/26 Q1009 NOSIG
Conditions at: VOCI (COCHIN INTL , IN) observed 0830 UTC 17 June 2019
Temperature: 31.0°C (88°F)
Dewpoint: 26.0°C (79°F) [RH = 75%]
Pressure (altimeter): 29.79 inches Hg (1009.0 mb)
Winds: from the WSW (250 degrees) at 14 MPH (12 knots; 6.2 m/s)
Visibility: 4 miles ( 6 km)
Ceiling: at least 12,000 feet AGL
Clouds: scattered clouds at 1500 feet AGL
scattered clouds at 2000 feet AGL
Weather: no significant weather observed at this time

METAR text: VOCI 170800Z 25008KT 6000 SCT015 SCT020 32/25 Q1009 NOSIG
Conditions at: VOCI (COCHIN INTL , IN) observed 0800 UTC 17 June 2019
Temperature: 32.0°C (90°F)
Dewpoint: 25.0°C (77°F) [RH = 67%]
Pressure (altimeter): 29.79 inches Hg (1009.0 mb)
Winds: from the WSW (250 degrees) at 9 MPH (8 knots; 4.1 m/s)
Visibility: 4 miles ( 6 km)
Ceiling: at least 12,000 feet AGL
Clouds: scattered clouds at 1500 feet AGL
scattered clouds at 2000 feet AGL
Weather: no significant weather observed at this time

METAR text: VOCI 170730Z 25010KT 6000 SCT025 32/25 Q1009 NOSIG
Conditions at: VOCI (COCHIN INTL , IN) observed 0730 UTC 17 June 2019
Temperature: 32.0°C (90°F)
Dewpoint: 25.0°C (77°F) [RH = 67%]
Pressure (altimeter): 29.79 inches Hg (1009.0 mb)
Winds: from the WSW (250 degrees) at 12 MPH (10 knots; 5.1 m/s)
Visibility: 4 miles ( 6 km)
Ceiling: at least 12,000 feet AGL
Clouds: scattered clouds at 2500 feet AGL
Weather: no significant weather observed at this time

METAR text: VOCI 170700Z 25009KT 6000 SCT025 31/26 Q1010 NOSIG
Conditions at: VOCI (COCHIN INTL , IN) observed 0700 UTC 17 June 2019
Temperature: 31.0°C (88°F)
Dewpoint: 26.0°C (79°F) [RH = 75%]
Pressure (altimeter): 29.82 inches Hg (1010.0 mb)
Winds: from the WSW (250 degrees) at 10 MPH (9 knots; 4.6 m/s)
Visibility: 4 miles ( 6 km)
Ceiling: at least 12,000 feet AGL
Clouds: scattered clouds at 2500 feet AGL
Weather: no significant weather observed at this time

METAR text: VOCI 170630Z 27013KT 6000 SCT025 32/25 Q1010 NOSIG
Conditions at: VOCI (COCHIN INTL , IN) observed 0630 UTC 17 June 2019
Temperature: 32.0°C (90°F)
Dewpoint: 25.0°C (77°F) [RH = 67%]
Pressure (altimeter): 29.82 inches Hg (1010.0 mb)
Winds: from the W (270 degrees) at 15 MPH (13 knots; 6.7 m/s)
Visibility: 4 miles ( 6 km)
Ceiling: at least 12,000 feet AGL
Clouds: scattered clouds at 2500 feet AGL
Weather: no significant weather observed at this time

METAR text: VOCI 170600Z 25012KT 6000 SCT025 32/25 Q1010 NOSIG
Conditions at: VOCI (COCHIN INTL , IN) observed 0600 UTC 17 June 2019
Temperature: 32.0°C (90°F)
Dewpoint: 25.0°C (77°F) [RH = 67%]
Pressure (altimeter): 29.82 inches Hg (1010.0 mb)
Winds: from the WSW (250 degrees) at 14 MPH (12 knots; 6.2 m/s)
Visibility: 4 miles ( 6 km)
Ceiling: at least 12,000 feet AGL
Clouds: scattered clouds at 2500 feet AGL
Weather: no significant weather observed at this time

METAR text: VOCI 170530Z 28010KT 6000 SCT025 32/26 Q1010 NOSIG
Conditions at: VOCI (COCHIN INTL , IN) observed 0530 UTC 17 June 2019
Temperature: 32.0°C (90°F)
Dewpoint: 26.0°C (79°F) [RH = 71%]
Pressure (altimeter): 29.82 inches Hg (1010.0 mb)
Winds: from the W (280 degrees) at 12 MPH (10 knots; 5.1 m/s)
Visibility: 4 miles ( 6 km)
Ceiling: at least 12,000 feet AGL
Clouds: scattered clouds at 2500 feet AGL
Weather: no significant weather observed at this time

METAR text: VOCI 170500Z 28005KT 5000 HZ SCT025 31/26 Q1010 BECMG 6000
Conditions at: VOCI (COCHIN INTL , IN) observed 0500 UTC 17 June 2019
Temperature: 31.0°C (88°F)
Dewpoint: 26.0°C (79°F) [RH = 75%]
Pressure (altimeter): 29.82 inches Hg (1010.0 mb)
Winds: from the W (280 degrees) at 6 MPH (5 knots; 2.6 m/s)
Visibility: 3 miles ( 5 km)
Ceiling: at least 12,000 feet AGL
Clouds: scattered clouds at 2500 feet AGL
Weather: HZ  (haze)

METAR text: VOCI 170430Z 27004KT 5000 HZ SCT020 31/26 Q1010 NOSIG
Conditions at: VOCI (COCHIN INTL , IN) observed 0430 UTC 17 June 2019
Temperature: 31.0°C (88°F)
Dewpoint: 26.0°C (79°F) [RH = 75%]
Pressure (altimeter): 29.82 inches Hg (1010.0 mb)
Winds: from the W (270 degrees) at 5 MPH (4 knots; 2.1 m/s)
Visibility: 3 miles ( 5 km)
Ceiling: at least 12,000 feet AGL
Clouds: scattered clouds at 2000 feet AGL
Weather: HZ  (haze)

METAR text: VOCI 170400Z 00000KT 5000 HZ SCT020 30/26 Q1011 NOSIG
Conditions at: VOCI (COCHIN INTL , IN) observed 0400 UTC 17 June 2019
Temperature: 30.0°C (86°F)
Dewpoint: 26.0°C (79°F) [RH = 79%]
Pressure (altimeter): 29.85 inches Hg (1011.0 mb)
Winds: calm
Visibility: 3 miles ( 5 km)
Ceiling: at least 12,000 feet AGL
Clouds: scattered clouds at 2000 feet AGL
Weather: HZ  (haze)

METAR text: VOCI 170330Z 10002KT 5000 HZ SCT020 30/26 Q1011 NOSIG
Conditions at: VOCI (COCHIN INTL , IN) observed 0330 UTC 17 June 2019
Temperature: 30.0°C (86°F)
Dewpoint: 26.0°C (79°F) [RH = 79%]
Pressure (altimeter): 29.85 inches Hg (1011.0 mb)
Winds: from the E (100 degrees) at 2 MPH (2 knots; 1.0 m/s)
Visibility: 3 miles ( 5 km)
Ceiling: at least 12,000 feet AGL
Clouds: scattered clouds at 2000 feet AGL
Weather: HZ  (haze)

METAR text: VOCI 170230Z 00000KT 4500 BR FEW020 28/26 Q1010 NOSIG
Conditions at: VOCI (COCHIN INTL , IN) observed 0230 UTC 17 June 2019
Temperature: 28.0°C (82°F)
Dewpoint: 26.0°C (79°F) [RH = 89%]
Pressure (altimeter): 29.82 inches Hg (1010.0 mb)
Winds: calm
Visibility: 2.80 miles (4.51 km)
Ceiling: at least 12,000 feet AGL
Clouds: few clouds at 2000 feet AGL
Weather: BR  (mist)

METAR text: VOCI 170200Z 00000KT 4000 BR SCT015 SCT080 27/26 Q1010 NOSIG
Conditions at: VOCI (COCHIN INTL , IN) observed 0200 UTC 17 June 2019
Temperature: 27.0°C (81°F)
Dewpoint: 26.0°C (79°F) [RH = 94%]
Pressure (altimeter): 29.82 inches Hg (1010.0 mb)
Winds: calm
Visibility: 2.49 miles (4.01 km)
Ceiling: at least 12,000 feet AGL
Clouds: scattered clouds at 1500 feet AGL
scattered clouds at 8000 feet AGL
Weather: BR  (mist)

METAR text: VOCI 170130Z 00000KT 3000 BR SCT015 SCT080 27/26 Q1010 NOSIG
Conditions at: VOCI (COCHIN INTL , IN) observed 0130 UTC 17 June 2019
Temperature: 27.0°C (81°F)
Dewpoint: 26.0°C (79°F) [RH = 94%]
Pressure (altimeter): 29.82 inches Hg (1010.0 mb)
Winds: calm
Visibility: 1.86 miles (2.99 km)
Ceiling: at least 12,000 feet AGL
Clouds: scattered clouds at 1500 feet AGL
scattered clouds at 8000 feet AGL
Weather: BR  (mist)

METAR text: VOCI 170100Z 12002KT 3000 BR SCT015 SCT080 26/26 Q1009 NOSIG
Conditions at: VOCI (COCHIN INTL , IN) observed 0100 UTC 17 June 2019
Temperature: 26.0°C (79°F)
Dewpoint: 26.0°C (79°F) [RH = 100%]
Pressure (altimeter): 29.79 inches Hg (1009.0 mb)
Winds: from the ESE (120 degrees) at 2 MPH (2 knots; 1.0 m/s)
Visibility: 1.86 miles (2.99 km)
Ceiling: at least 12,000 feet AGL
Clouds: scattered clouds at 1500 feet AGL
scattered clouds at 8000 feet AGL
Weather: BR  (mist)

METAR text: VOCI 170030Z 00000KT 3000 BR SCT015 SCT080 26/25 Q1009 NOSIG
Conditions at: VOCI (COCHIN INTL , IN) observed 0030 UTC 17 June 2019
Temperature: 26.0°C (79°F)
Dewpoint: 25.0°C (77°F) [RH = 94%]
Pressure (altimeter): 29.79 inches Hg (1009.0 mb)
Winds: calm
Visibility: 1.86 miles (2.99 km)
Ceiling: at least 12,000 feet AGL
Clouds: scattered clouds at 1500 feet AGL
scattered clouds at 8000 feet AGL
Weather: BR  (mist)

METAR text: VOCI 170000Z 00000KT 4000 BR SCT015 SCT080 27/26 Q1009 NOSIG
Conditions at: VOCI (COCHIN INTL , IN) observed 0000 UTC 17 June 2019
Temperature: 27.0°C (81°F)
Dewpoint: 26.0°C (79°F) [RH = 94%]
Pressure (altimeter): 29.79 inches Hg (1009.0 mb)
Winds: calm
Visibility: 2.49 miles (4.01 km)
Ceiling: at least 12,000 feet AGL
Clouds: scattered clouds at 1500 feet AGL
scattered clouds at 8000 feet AGL
Weather: BR  (mist)

METAR text: VOCI 162330Z 00000KT 4000 BR SCT015 SCT080 27/26 Q1009 NOSIG
Conditions at: VOCI (COCHIN INTL , IN) observed 2330 UTC 16 June 2019
Temperature: 27.0°C (81°F)
Dewpoint: 26.0°C (79°F) [RH = 94%]
Pressure (altimeter): 29.79 inches Hg (1009.0 mb)
Winds: calm
Visibility: 2.49 miles (4.01 km)
Ceiling: at least 12,000 feet AGL
Clouds: scattered clouds at 1500 feet AGL
scattered clouds at 8000 feet AGL
Weather: BR  (mist)

METAR text: VOCI 162300Z 00000KT 4000 BR SCT015 SCT080 27/26 Q1009 NOSIG
Conditions at: VOCI (COCHIN INTL , IN) observed 2300 UTC 16 June 2019
Temperature: 27.0°C (81°F)
Dewpoint: 26.0°C (79°F) [RH = 94%]
Pressure (altimeter): 29.79 inches Hg (1009.0 mb)
Winds: calm
Visibility: 2.49 miles (4.01 km)
Ceiling: at least 12,000 feet AGL
Clouds: scattered clouds at 1500 feet AGL
scattered clouds at 8000 feet AGL
Weather: BR  (mist)

METAR text: VOCI 162230Z 00000KT 4000 BR SCT015 SCT080 27/26 Q1009 NOSIG
Conditions at: VOCI (COCHIN INTL , IN) observed 2230 UTC 16 June 2019
Temperature: 27.0°C (81°F)
Dewpoint: 26.0°C (79°F) [RH = 94%]
Pressure (altimeter): 29.79 inches Hg (1009.0 mb)
Winds: calm
Visibility: 2.49 miles (4.01 km)
Ceiling: at least 12,000 feet AGL
Clouds: scattered clouds at 1500 feet AGL
scattered clouds at 8000 feet AGL
Weather: BR  (mist)

METAR text: VOCI 162200Z 00000KT 4000 HZ SCT015 SCT080 27/26 Q1009 NOSIG
Conditions at: VOCI (COCHIN INTL , IN) observed 2200 UTC 16 June 2019
Temperature: 27.0°C (81°F)
Dewpoint: 26.0°C (79°F) [RH = 94%]
Pressure (altimeter): 29.79 inches Hg (1009.0 mb)
Winds: calm
Visibility: 2.49 miles (4.01 km)
Ceiling: at least 12,000 feet AGL
Clouds: scattered clouds at 1500 feet AGL
scattered clouds at 8000 feet AGL
Weather: HZ  (haze)

METAR text: VOCI 162130Z 00000KT 4000 BR SCT015 SCT080 27/26 Q1009 NOSIG
Conditions at: VOCI (COCHIN INTL , IN) observed 2130 UTC 16 June 2019
Temperature: 27.0°C (81°F)
Dewpoint: 26.0°C (79°F) [RH = 94%]
Pressure (altimeter): 29.79 inches Hg (1009.0 mb)
Winds: calm
Visibility: 2.49 miles (4.01 km)
Ceiling: at least 12,000 feet AGL
Clouds: scattered clouds at 1500 feet AGL
scattered clouds at 8000 feet AGL
Weather: BR  (mist)

METAR text: VOCI 162100Z 00000KT 4000 BR SCT015 SCT080 27/26 Q1009 NOSIG
Conditions at: VOCI (COCHIN INTL , IN) observed 2100 UTC 16 June 2019
Temperature: 27.0°C (81°F)
Dewpoint: 26.0°C (79°F) [RH = 94%]
Pressure (altimeter): 29.79 inches Hg (1009.0 mb)
Winds: calm
Visibility: 2.49 miles (4.01 km)
Ceiling: at least 12,000 feet AGL
Clouds: scattered clouds at 1500 feet AGL
scattered clouds at 8000 feet AGL
Weather: BR  (mist)

METAR text: VOCI 162030Z 00000KT 4000 BR SCT015 27/26 Q1009 NOSIG
Conditions at: VOCI (COCHIN INTL , IN) observed 2030 UTC 16 June 2019
Temperature: 27.0°C (81°F)
Dewpoint: 26.0°C (79°F) [RH = 94%]
Pressure (altimeter): 29.79 inches Hg (1009.0 mb)
Winds: calm
Visibility: 2.49 miles (4.01 km)
Ceiling: at least 12,000 feet AGL
Clouds: scattered clouds at 1500 feet AGL
Weather: BR  (mist)

METAR text: VOCI 162000Z 00000KT 4000 BR SCT015 27/26 Q1009 NOSIG
Conditions at: VOCI (COCHIN INTL , IN) observed 2000 UTC 16 June 2019
Temperature: 27.0°C (81°F)
Dewpoint: 26.0°C (79°F) [RH = 94%]
Pressure (altimeter): 29.79 inches Hg (1009.0 mb)
Winds: calm
Visibility: 2.49 miles (4.01 km)
Ceiling: at least 12,000 feet AGL
Clouds: scattered clouds at 1500 feet AGL
Weather: BR  (mist)

METAR text: VOCI 161930Z 00000KT 4000 BR SCT015 27/26 Q1010 NOSIG
Conditions at: VOCI (COCHIN INTL , IN) observed 1930 UTC 16 June 2019
Temperature: 27.0°C (81°F)
Dewpoint: 26.0°C (79°F) [RH = 94%]
Pressure (altimeter): 29.82 inches Hg (1010.0 mb)
Winds: calm
Visibility: 2.49 miles (4.01 km)
Ceiling: at least 12,000 feet AGL
Clouds: scattered clouds at 1500 feet AGL
Weather: BR  (mist)

METAR text: VOCI 161900Z 00000KT 4000 BR SCT015 28/26 Q1010 NOSIG
Conditions at: VOCI (COCHIN INTL , IN) observed 1900 UTC 16 June 2019
Temperature: 28.0°C (82°F)
Dewpoint: 26.0°C (79°F) [RH = 89%]
Pressure (altimeter): 29.82 inches Hg (1010.0 mb)
Winds: calm
Visibility: 2.49 miles (4.01 km)
Ceiling: at least 12,000 feet AGL
Clouds: scattered clouds at 1500 feet AGL
Weather: BR  (mist)

METAR text: VOCI 161830Z 00000KT 4000 BR SCT015 28/26 Q1010 NOSIG
Conditions at: VOCI (COCHIN INTL , IN) observed 1830 UTC 16 June 2019
Temperature: 28.0°C (82°F)
Dewpoint: 26.0°C (79°F) [RH = 89%]
Pressure (altimeter): 29.82 inches Hg (1010.0 mb)
Winds: calm
Visibility: 2.49 miles (4.01 km)
Ceiling: at least 12,000 feet AGL
Clouds: scattered clouds at 1500 feet AGL
Weather: BR  (mist)

METAR text: VOCI 161800Z 07005KT 4000 BR SCT015 28/26 Q1011 NOSIG
Conditions at: VOCI (COCHIN INTL , IN) observed 1800 UTC 16 June 2019
Temperature: 28.0°C (82°F)
Dewpoint: 26.0°C (79°F) [RH = 89%]
Pressure (altimeter): 29.85 inches Hg (1011.0 mb)
Winds: from the ENE (70 degrees) at 6 MPH (5 knots; 2.6 m/s)
Visibility: 2.49 miles (4.01 km)
Ceiling: at least 12,000 feet AGL
Clouds: scattered clouds at 1500 feet AGL
Weather: BR  (mist)

METAR text: VOCI 161730Z 00000KT 5000 BR FEW015 28/26 Q1011 TEMPO 4000 BR
Conditions at: VOCI (COCHIN INTL , IN) observed 1730 UTC 16 June 2019
Temperature: 28.0°C (82°F)
Dewpoint: 26.0°C (79°F) [RH = 89%]
Pressure (altimeter): 29.85 inches Hg (1011.0 mb)
Winds: calm
Visibility: 3 miles ( 5 km)
Ceiling: at least 12,000 feet AGL
Clouds: few clouds at 1500 feet AGL
Weather: BR  (mist)

METAR text: VOCI 161700Z 00000KT 5000 HZ FEW015 28/26 Q1011 NOSIG
Conditions at: VOCI (COCHIN INTL , IN) observed 1700 UTC 16 June 2019
Temperature: 28.0°C (82°F)
Dewpoint: 26.0°C (79°F) [RH = 89%]
Pressure (altimeter): 29.85 inches Hg (1011.0 mb)
Winds: calm
Visibility: 3 miles ( 5 km)
Ceiling: at least 12,000 feet AGL
Clouds: few clouds at 1500 feet AGL
Weather: HZ  (haze)

METAR text: VOCI 161630Z 00000KT 5000 HZ FEW015 28/26 Q1011 NOSIG
Conditions at: VOCI (COCHIN INTL , IN) observed 1630 UTC 16 June 2019
Temperature: 28.0°C (82°F)
Dewpoint: 26.0°C (79°F) [RH = 89%]
Pressure (altimeter): 29.85 inches Hg (1011.0 mb)
Winds: calm
Visibility: 3 miles ( 5 km)
Ceiling: at least 12,000 feet AGL
Clouds: few clouds at 1500 feet AGL
Weather: HZ  (haze)

METAR text: VOCI 161600Z 00000KT 5000 HZ FEW015 29/26 Q1011 NOSIG
Conditions at: VOCI (COCHIN INTL , IN) observed 1600 UTC 16 June 2019
Temperature: 29.0°C (84°F)
Dewpoint: 26.0°C (79°F) [RH = 84%]
Pressure (altimeter): 29.85 inches Hg (1011.0 mb)
Winds: calm
Visibility: 3 miles ( 5 km)
Ceiling: at least 12,000 feet AGL
Clouds: few clouds at 1500 feet AGL
Weather: HZ  (haze)

METAR text: VOCI 161530Z 29006KT 5000 HZ FEW015 29/26 Q1011 NOSIG
Conditions at: VOCI (COCHIN INTL , IN) observed 1530 UTC 16 June 2019
Temperature: 29.0°C (84°F)
Dewpoint: 26.0°C (79°F) [RH = 84%]
Pressure (altimeter): 29.85 inches Hg (1011.0 mb)
Winds: from the WNW (290 degrees) at 7 MPH (6 knots; 3.1 m/s)
Visibility: 3 miles ( 5 km)
Ceiling: at least 12,000 feet AGL
Clouds: few clouds at 1500 feet AGL
Weather: HZ  (haze)

METAR text: VOCI 161500Z 00000KT 5000 HZ FEW015 29/26 Q1010 NOSIG
Conditions at: VOCI (COCHIN INTL , IN) observed 1500 UTC 16 June 2019
Temperature: 29.0°C (84°F)
Dewpoint: 26.0°C (79°F) [RH = 84%]
Pressure (altimeter): 29.82 inches Hg (1010.0 mb)
Winds: calm
Visibility: 3 miles ( 5 km)
Ceiling: at least 12,000 feet AGL
Clouds: few clouds at 1500 feet AGL
Weather: HZ  (haze)

METAR text: VOCI 161430Z 24004KT 5000 HZ FEW015 29/26 Q1010 NOSIG
Conditions at: VOCI (COCHIN INTL , IN) observed 1430 UTC 16 June 2019
Temperature: 29.0°C (84°F)
Dewpoint: 26.0°C (79°F) [RH = 84%]
Pressure (altimeter): 29.82 inches Hg (1010.0 mb)
Winds: from the WSW (240 degrees) at 5 MPH (4 knots; 2.1 m/s)
Visibility: 3 miles ( 5 km)
Ceiling: at least 12,000 feet AGL
Clouds: few clouds at 1500 feet AGL
Weather: HZ  (haze)

METAR text: VOCI 161400Z 26004KT 5000 HZ FEW015 29/26 Q1009 NOSIG
Conditions at: VOCI (COCHIN INTL , IN) observed 1400 UTC 16 June 2019
Temperature: 29.0°C (84°F)
Dewpoint: 26.0°C (79°F) [RH = 84%]
Pressure (altimeter): 29.79 inches Hg (1009.0 mb)
Winds: from the W (260 degrees) at 5 MPH (4 knots; 2.1 m/s)
Visibility: 3 miles ( 5 km)
Ceiling: at least 12,000 feet AGL
Clouds: few clouds at 1500 feet AGL
Weather: HZ  (haze)

METAR text: VOCI 161330Z 25006KT 5000 HZ FEW015 30/26 Q1009 NOSIG
Conditions at: VOCI (COCHIN INTL , IN) observed 1330 UTC 16 June 2019
Temperature: 30.0°C (86°F)
Dewpoint: 26.0°C (79°F) [RH = 79%]
Pressure (altimeter): 29.79 inches Hg (1009.0 mb)
Winds: from the WSW (250 degrees) at 7 MPH (6 knots; 3.1 m/s)
Visibility: 3 miles ( 5 km)
Ceiling: at least 12,000 feet AGL
Clouds: few clouds at 1500 feet AGL
Weather: HZ  (haze)

METAR text: VOCI 161300Z 26008KT 5000 HZ FEW015 30/26 Q1009 NOSIG
Conditions at: VOCI (COCHIN INTL , IN) observed 1300 UTC 16 June 2019
Temperature: 30.0°C (86°F)
Dewpoint: 26.0°C (79°F) [RH = 79%]
Pressure (altimeter): 29.79 inches Hg (1009.0 mb)
Winds: from the W (260 degrees) at 9 MPH (8 knots; 4.1 m/s)
Visibility: 3 miles ( 5 km)
Ceiling: at least 12,000 feet AGL
Clouds: few clouds at 1500 feet AGL
Weather: HZ  (haze)

METAR text: VOCI 161230Z 26010KT 5000 HZ FEW015 SCT020 31/25 Q1008 NOSIG
Conditions at: VOCI (COCHIN INTL , IN) observed 1230 UTC 16 June 2019
Temperature: 31.0°C (88°F)
Dewpoint: 25.0°C (77°F) [RH = 71%]
Pressure (altimeter): 29.76 inches Hg (1008.0 mb)
Winds: from the W (260 degrees) at 12 MPH (10 knots; 5.1 m/s)
Visibility: 3 miles ( 5 km)
Ceiling: at least 12,000 feet AGL
Clouds: few clouds at 1500 feet AGL
scattered clouds at 2000 feet AGL
Weather: HZ  (haze)

METAR text: VOCI 161200Z 27010KT 5000 HZ FEW015 SCT020 32/26 Q1007 NOSIG
Conditions at: VOCI (COCHIN INTL , IN) observed 1200 UTC 16 June 2019
Temperature: 32.0°C (90°F)
Dewpoint: 26.0°C (79°F) [RH = 71%]
Pressure (altimeter): 29.73 inches Hg (1007.0 mb)
Winds: from the W (270 degrees) at 12 MPH (10 knots; 5.1 m/s)
Visibility: 3 miles ( 5 km)
Ceiling: at least 12,000 feet AGL
Clouds: few clouds at 1500 feet AGL
scattered clouds at 2000 feet AGL
Weather: HZ  (haze)

METAR text: VOCI 161130Z 26010KT 5000 HZ SCT015 SCT020 32/26 Q1007 NOSIG
Conditions at: VOCI (COCHIN INTL , IN) observed 1130 UTC 16 June 2019
Temperature: 32.0°C (90°F)
Dewpoint: 26.0°C (79°F) [RH = 71%]
Pressure (altimeter): 29.73 inches Hg (1007.0 mb)
Winds: from the W (260 degrees) at 12 MPH (10 knots; 5.1 m/s)
Visibility: 3 miles ( 5 km)
Ceiling: at least 12,000 feet AGL
Clouds: scattered clouds at 1500 feet AGL
scattered clouds at 2000 feet AGL
Weather: HZ  (haze)

METAR text: VOCI 161100Z 25011KT 5000 HZ SCT015 SCT020 32/25 Q1007 NOSIG
Conditions at: VOCI (COCHIN INTL , IN) observed 1100 UTC 16 June 2019
Temperature: 32.0°C (90°F)
Dewpoint: 25.0°C (77°F) [RH = 67%]
Pressure (altimeter): 29.73 inches Hg (1007.0 mb)
Winds: from the WSW (250 degrees) at 13 MPH (11 knots; 5.7 m/s)
Visibility: 3 miles ( 5 km)
Ceiling: at least 12,000 feet AGL
Clouds: scattered clouds at 1500 feet AGL
scattered clouds at 2000 feet AGL
Weather: HZ  (haze)

METAR text: VOCI 161030Z 26011KT 5000 HZ SCT015 SCT020 33/25 Q1007 NOSIG
Conditions at: VOCI (COCHIN INTL , IN) observed 1030 UTC 16 June 2019
Temperature: 33.0°C (91°F)
Dewpoint: 25.0°C (77°F) [RH = 63%]
Pressure (altimeter): 29.73 inches Hg (1007.0 mb)
Winds: from the W (260 degrees) at 13 MPH (11 knots; 5.7 m/s)
Visibility: 3 miles ( 5 km)
Ceiling: at least 12,000 feet AGL
Clouds: scattered clouds at 1500 feet AGL
scattered clouds at 2000 feet AGL
Weather: HZ  (haze)

METAR text: VOCI 161000Z 28011KT 5000 HZ SCT015 SCT020 33/25 Q1007 NOSIG
Conditions at: VOCI (COCHIN INTL , IN) observed 1000 UTC 16 June 2019
Temperature: 33.0°C (91°F)
Dewpoint: 25.0°C (77°F) [RH = 63%]
Pressure (altimeter): 29.73 inches Hg (1007.0 mb)
Winds: from the W (280 degrees) at 13 MPH (11 knots; 5.7 m/s)
Visibility: 3 miles ( 5 km)
Ceiling: at least 12,000 feet AGL
Clouds: scattered clouds at 1500 feet AGL
scattered clouds at 2000 feet AGL
Weather: HZ  (haze)

METAR text: VOCI 160930Z 27011KT 5000 HZ SCT015 SCT020 33/24 Q1007 NOSIG
Conditions at: VOCI (COCHIN INTL , IN) observed 0930 UTC 16 June 2019
Temperature: 33.0°C (91°F)
Dewpoint: 24.0°C (75°F) [RH = 59%]
Pressure (altimeter): 29.73 inches Hg (1007.0 mb)
Winds: from the W (270 degrees) at 13 MPH (11 knots; 5.7 m/s)
Visibility: 3 miles ( 5 km)
Ceiling: at least 12,000 feet AGL
Clouds: scattered clouds at 1500 feet AGL
scattered clouds at 2000 feet AGL
Weather: HZ  (haze)

METAR text: VOCI 160900Z 26010KT 5000 HZ SCT015 SCT020 33/26 Q1007 NOSIG
Conditions at: VOCI (COCHIN INTL , IN) observed 0900 UTC 16 June 2019
Temperature: 33.0°C (91°F)
Dewpoint: 26.0°C (79°F) [RH = 67%]
Pressure (altimeter): 29.73 inches Hg (1007.0 mb)
Winds: from the W (260 degrees) at 12 MPH (10 knots; 5.1 m/s)
Visibility: 3 miles ( 5 km)
Ceiling: at least 12,000 feet AGL
Clouds: scattered clouds at 1500 feet AGL
scattered clouds at 2000 feet AGL
Weather: HZ  (haze)

METAR text: VOCI 160830Z 27012KT 5000 HZ SCT015 SCT020 33/25 Q1008 NOSIG
Conditions at: VOCI (COCHIN INTL , IN) observed 0830 UTC 16 June 2019
Temperature: 33.0°C (91°F)
Dewpoint: 25.0°C (77°F) [RH = 63%]
Pressure (altimeter): 29.76 inches Hg (1008.0 mb)
Winds: from the W (270 degrees) at 14 MPH (12 knots; 6.2 m/s)
Visibility: 3 miles ( 5 km)
Ceiling: at least 12,000 feet AGL
Clouds: scattered clouds at 1500 feet AGL
scattered clouds at 2000 feet AGL
Weather: HZ  (haze)

METAR text: VOCI 160800Z 28012KT 5000 HZ SCT015 SCT020 33/25 Q1008 NOSIG
Conditions at: VOCI (COCHIN INTL , IN) observed 0800 UTC 16 June 2019
Temperature: 33.0°C (91°F)
Dewpoint: 25.0°C (77°F) [RH = 63%]
Pressure (altimeter): 29.76 inches Hg (1008.0 mb)
Winds: from the W (280 degrees) at 14 MPH (12 knots; 6.2 m/s)
Visibility: 3 miles ( 5 km)
Ceiling: at least 12,000 feet AGL
Clouds: scattered clouds at 1500 feet AGL
scattered clouds at 2000 feet AGL
Weather: HZ  (haze)

METAR text: VOCI 160730Z 26011KT 5000 HZ SCT012 SCT020 32/26 Q1008 NOSIG
Conditions at: VOCI (COCHIN INTL , IN) observed 0730 UTC 16 June 2019
Temperature: 32.0°C (90°F)
Dewpoint: 26.0°C (79°F) [RH = 71%]
Pressure (altimeter): 29.76 inches Hg (1008.0 mb)
Winds: from the W (260 degrees) at 13 MPH (11 knots; 5.7 m/s)
Visibility: 3 miles ( 5 km)
Ceiling: at least 12,000 feet AGL
Clouds: scattered clouds at 1200 feet AGL
scattered clouds at 2000 feet AGL
Weather: HZ  (haze)

METAR text: VOCI 160700Z 27010KT 5000 HZ SCT012 SCT020 32/25 Q1009 NOSIG
Conditions at: VOCI (COCHIN INTL , IN) observed 0700 UTC 16 June 2019
Temperature: 32.0°C (90°F)
Dewpoint: 25.0°C (77°F) [RH = 67%]
Pressure (altimeter): 29.79 inches Hg (1009.0 mb)
Winds: from the W (270 degrees) at 12 MPH (10 knots; 5.1 m/s)
Visibility: 3 miles ( 5 km)
Ceiling: at least 12,000 feet AGL
Clouds: scattered clouds at 1200 feet AGL
scattered clouds at 2000 feet AGL
Weather: HZ  (haze)

METAR text: VOCI 160630Z 28009KT 5000 HZ SCT012 SCT020 31/26 Q1009 NOSIG
Conditions at: VOCI (COCHIN INTL , IN) observed 0630 UTC 16 June 2019
Temperature: 31.0°C (88°F)
Dewpoint: 26.0°C (79°F) [RH = 75%]
Pressure (altimeter): 29.79 inches Hg (1009.0 mb)
Winds: from the W (280 degrees) at 10 MPH (9 knots; 4.6 m/s)
Visibility: 3 miles ( 5 km)
Ceiling: at least 12,000 feet AGL
Clouds: scattered clouds at 1200 feet AGL
scattered clouds at 2000 feet AGL
Weather: HZ  (haze)

METAR text: VOCI 160600Z 27007KT 4500 DZ SCT012 FEW025TCU BKN080 31/26 Q1009 NOSIG
Conditions at: VOCI (COCHIN INTL , IN) observed 0600 UTC 16 June 2019
Temperature: 31.0°C (88°F)
Dewpoint: 26.0°C (79°F) [RH = 75%]
Pressure (altimeter): 29.79 inches Hg (1009.0 mb)
Winds: from the W (270 degrees) at 8 MPH (7 knots; 3.6 m/s)
Visibility: 2.80 miles (4.51 km)
Ceiling: 8000 feet AGL
Clouds: scattered clouds at 1200 feet AGL
few clouds at 2500 feet AGL
broken clouds at 8000 feet AGL
Weather: DZ  (moderate drizzle)

METAR text: VOCI 160530Z 28003KT 5000 HZ SCT015 FEW025TCU BKN080 31/25 Q1010 NOSIG
Conditions at: VOCI (COCHIN INTL , IN) observed 0530 UTC 16 June 2019
Temperature: 31.0°C (88°F)
Dewpoint: 25.0°C (77°F) [RH = 71%]
Pressure (altimeter): 29.82 inches Hg (1010.0 mb)
Winds: from the W (280 degrees) at 3 MPH (3 knots; 1.5 m/s)
Visibility: 3 miles ( 5 km)
Ceiling: 8000 feet AGL
Clouds: scattered clouds at 1500 feet AGL
few clouds at 2500 feet AGL
broken clouds at 8000 feet AGL
Weather: HZ  (haze)

METAR text: VOCI 160500Z 23005KT 5000 HZ SCT015 FEW025TCU BKN080 30/26 Q1010 NOSIG
Conditions at: VOCI (COCHIN INTL , IN) observed 0500 UTC 16 June 2019
Temperature: 30.0°C (86°F)
Dewpoint: 26.0°C (79°F) [RH = 79%]
Pressure (altimeter): 29.82 inches Hg (1010.0 mb)
Winds: from the SW (230 degrees) at 6 MPH (5 knots; 2.6 m/s)
Visibility: 3 miles ( 5 km)
Ceiling: 8000 feet AGL
Clouds: scattered clouds at 1500 feet AGL
few clouds at 2500 feet AGL
broken clouds at 8000 feet AGL
Weather: HZ  (haze)

METAR text: VOCI 160430Z 08004KT 4000 HZ SCT015 BKN080 30/26 Q1010 BECMG 5000 HZ
Conditions at: VOCI (COCHIN INTL , IN) observed 0430 UTC 16 June 2019
Temperature: 30.0°C (86°F)
Dewpoint: 26.0°C (79°F) [RH = 79%]
Pressure (altimeter): 29.82 inches Hg (1010.0 mb)
Winds: from the E (80 degrees) at 5 MPH (4 knots; 2.1 m/s)
Visibility: 2.49 miles (4.01 km)
Ceiling: 8000 feet AGL
Clouds: scattered clouds at 1500 feet AGL
broken clouds at 8000 feet AGL
Weather: HZ  (haze)

METAR text: VOCI 160400Z 08004KT 4000 HZ SCT012 FEW025CB SCT080 29/26 Q1010 NOSIG
Conditions at: VOCI (COCHIN INTL , IN) observed 0400 UTC 16 June 2019
Temperature: 29.0°C (84°F)
Dewpoint: 26.0°C (79°F) [RH = 84%]
Pressure (altimeter): 29.82 inches Hg (1010.0 mb)
Winds: from the E (80 degrees) at 5 MPH (4 knots; 2.1 m/s)
Visibility: 2.49 miles (4.01 km)
Ceiling: at least 12,000 feet AGL
Clouds: scattered clouds at 1200 feet AGL
few clouds at 2500 feet AGL
scattered clouds at 8000 feet AGL
Weather: HZ  (haze)

METAR text: VOCI 160330Z 04003KT 4000 HZ SCT012 FEW025CB SCT080 28/26 COR Q1010 NOSIG
Conditions at: VOCI (COCHIN INTL , IN) observed 0330 UTC 16 June 2019
Temperature: 28.0°C (82°F)
Dewpoint: 26.0°C (79°F) [RH = 89%]
Pressure (altimeter): 29.82 inches Hg (1010.0 mb)
Winds: from the NE (40 degrees) at 3 MPH (3 knots; 1.5 m/s)
Visibility: 2.49 miles (4.01 km)
Ceiling: at least 12,000 feet AGL
Clouds: scattered clouds at 1200 feet AGL
few clouds at 2500 feet AGL
scattered clouds at 8000 feet AGL
Weather: HZ  (haze)

METAR text: VOCI 160300Z 09003KT 3000 BR SCT012 FEW025CB SCT080 28/26 Q1010 BECMG 4000 HZ
Conditions at: VOCI (COCHIN INTL , IN) observed 0300 UTC 16 June 2019
Temperature: 28.0°C (82°F)
Dewpoint: 26.0°C (79°F) [RH = 89%]
Pressure (altimeter): 29.82 inches Hg (1010.0 mb)
Winds: from the E (90 degrees) at 3 MPH (3 knots; 1.5 m/s)
Visibility: 1.86 miles (2.99 km)
Ceiling: at least 12,000 feet AGL
Clouds: scattered clouds at 1200 feet AGL
few clouds at 2500 feet AGL
scattered clouds at 8000 feet AGL
Weather: BR  (mist)

METAR text: VOCI 160230Z 11003KT 3000 BR SCT012 FEW025CB BKN080 28/26 Q1010 NOSIG
Conditions at: VOCI (COCHIN INTL , IN) observed 0230 UTC 16 June 2019
Temperature: 28.0°C (82°F)
Dewpoint: 26.0°C (79°F) [RH = 89%]
Pressure (altimeter): 29.82 inches Hg (1010.0 mb)
Winds: from the ESE (110 degrees) at 3 MPH (3 knots; 1.5 m/s)
Visibility: 1.86 miles (2.99 km)
Ceiling: 8000 feet AGL
Clouds: scattered clouds at 1200 feet AGL
few clouds at 2500 feet AGL
broken clouds at 8000 feet AGL
Weather: BR  (mist)

METAR text: VOCI 160200Z 00000KT 3000 BR SCT015 SCT080 27/26 Q1010 NOSIG
Conditions at: VOCI (COCHIN INTL , IN) observed 0200 UTC 16 June 2019
Temperature: 27.0°C (81°F)
Dewpoint: 26.0°C (79°F) [RH = 94%]
Pressure (altimeter): 29.82 inches Hg (1010.0 mb)
Winds: calm
Visibility: 1.86 miles (2.99 km)
Ceiling: at least 12,000 feet AGL
Clouds: scattered clouds at 1500 feet AGL
scattered clouds at 8000 feet AGL
Weather: BR  (mist)

METAR text: VOCI 160130Z 09002KT 3000 BR SCT015 SCT080 26/25 Q1010 NOSIG
Conditions at: VOCI (COCHIN INTL , IN) observed 0130 UTC 16 June 2019
Temperature: 26.0°C (79°F)
Dewpoint: 25.0°C (77°F) [RH = 94%]
Pressure (altimeter): 29.82 inches Hg (1010.0 mb)
Winds: from the E (90 degrees) at 2 MPH (2 knots; 1.0 m/s)
Visibility: 1.86 miles (2.99 km)
Ceiling: at least 12,000 feet AGL
Clouds: scattered clouds at 1500 feet AGL
scattered clouds at 8000 feet AGL
Weather: BR  (mist)

METAR text: VOCI 160100Z 00000KT 2500 -DZ SCT015 BKN080 26/25 Q1009 TEMPO 3000 BR
Conditions at: VOCI (COCHIN INTL , IN) observed 0100 UTC 16 June 2019
Temperature: 26.0°C (79°F)
Dewpoint: 25.0°C (77°F) [RH = 94%]
Pressure (altimeter): 29.79 inches Hg (1009.0 mb)
Winds: calm
Visibility: 1.55 miles (2.49 km)
Ceiling: 8000 feet AGL
Clouds: scattered clouds at 1500 feet AGL
broken clouds at 8000 feet AGL
Weather: -DZ  (light drizzle)

METAR text: VOCI 160030Z 00000KT 3000 BR SCT015 SCT080 26/25 Q1009 TEMPO 2500 BR
Conditions at: VOCI (COCHIN INTL , IN) observed 0030 UTC 16 June 2019
Temperature: 26.0°C (79°F)
Dewpoint: 25.0°C (77°F) [RH = 94%]
Pressure (altimeter): 29.79 inches Hg (1009.0 mb)
Winds: calm
Visibility: 1.86 miles (2.99 km)
Ceiling: at least 12,000 feet AGL
Clouds: scattered clouds at 1500 feet AGL
scattered clouds at 8000 feet AGL
Weather: BR  (mist)

METAR text: VOCI 160000Z 07002KT 3000 BR SCT015 SCT080 26/25 Q1009 NOSIG
Conditions at: VOCI (COCHIN INTL , IN) observed 0000 UTC 16 June 2019
Temperature: 26.0°C (79°F)
Dewpoint: 25.0°C (77°F) [RH = 94%]
Pressure (altimeter): 29.79 inches Hg (1009.0 mb)
Winds: from the ENE (70 degrees) at 2 MPH (2 knots; 1.0 m/s)
Visibility: 1.86 miles (2.99 km)
Ceiling: at least 12,000 feet AGL
Clouds: scattered clouds at 1500 feet AGL
scattered clouds at 8000 feet AGL
Weather: BR  (mist)

METAR text: VOCI 152330Z 10002KT 3500 BR SCT015 SCT080 26/25 Q1008 TEMPO 3000 BR
Conditions at: VOCI (COCHIN INTL , IN) observed 2330 UTC 15 June 2019
Temperature: 26.0°C (79°F)
Dewpoint: 25.0°C (77°F) [RH = 94%]
Pressure (altimeter): 29.76 inches Hg (1008.0 mb)
Winds: from the E (100 degrees) at 2 MPH (2 knots; 1.0 m/s)
Visibility: 2.17 miles (3.49 km)
Ceiling: at least 12,000 feet AGL
Clouds: scattered clouds at 1500 feet AGL
scattered clouds at 8000 feet AGL
Weather: BR  (mist)

Forecast for: VOCI (COCHIN INTL , IN)
Text: TAF VOCI 170800Z 1709/1718 27010KT 6000 SCT020
Forecast period: 0900 to 1500 UTC 17 June 2019
Forecast type: FROM: standard forecast or significant change
Winds: from the W (270 degrees) at 12 MPH (10 knots; 5.1 m/s)
Visibility: 4 miles (6 km)
Ceiling: at least 12,000 feet AGL
Clouds: scattered clouds at 2000 feet AGL
Weather: no significant weather forecast for this period
Text: TEMPO 1710/1712 3000 SHRA RA SCT010 FEW025CB BKN080
Forecast period: 1000 to 1200 UTC 17 June 2019
Forecast type: TEMPORARY: The following changes expected for less than half the time period
Visibility: 1.86 miles (2.99 km)
Ceiling: 8000 feet AGL
Clouds: scattered clouds at 1000 feet AGL
few clouds at 2500 feet AGL
broken clouds at 8000 feet AGL
Weather: SHRA RA  (rain showers, moderate rain)
Text: BECMG 1715/1717 VRB05KT 4000 BR HZ SCT015 BKN080
Forecast period: 1500 to 1800 UTC 17 June 2019
Forecast type: BECOMING: Conditions expected to become as follows by 1700 UTC 17 June 2019
Winds: variable direction winds at 6 MPH (5 knots; 2.6 m/s)
Visibility: 2.49 miles (4.01 km)
Ceiling: 8000 feet AGL
Clouds: scattered clouds at 1500 feet AGL
broken clouds at 8000 feet AGL
Weather: BR HZ  (mist, haze)